sensor_id;sensor_type;location;lat;lon;timestamp;P1;durP1;ratioP1;P2;durP2;ratioP2
23684;SDS011;12020;51.384;6.908;2022-09-29T00:02:24;10.23;;;8.13;;
23684;SDS011;12020;51.384;6.908;2022-09-29T00:04:50;10.10;;;7.93;;
23684;SDS011;12020;51.384;6.908;2022-09-29T00:07:17;8.40;;;7.60;;
23684;SDS011;12020;51.384;6.908;2022-09-29T00:09:43;9.00;;;7.73;;
23684;SDS011;12020;51.384;6.908;2022-09-29T00:12:08;10.03;;;8.20;;
23684;SDS011;12020;51.384;6.908;2022-09-29T00:14:34;9.13;;;7.97;;
23684;SDS011;12020;51.384;6.908;2022-09-29T00:17:00;9.47;;;8.47;;
23684;SDS011;12020;51.384;6.908;2022-09-29T00:19:25;8.77;;;7.97;;
23684;SDS011;12020;51.384;6.908;2022-09-29T00:21:52;8.77;;;7.87;;
23684;SDS011;12020;51.384;6.908;2022-09-29T00:24:18;8.97;;;7.97;;
23684;SDS011;12020;51.384;6.908;2022-09-29T00:26:44;11.17;;;9.00;;
23684;SDS011;12020;51.384;6.908;2022-09-29T00:29:11;11.73;;;9.50;;
23684;SDS011;12020;51.384;6.908;2022-09-29T00:31:36;10.87;;;9.33;;
23684;SDS011;12020;51.384;6.908;2022-09-29T00:34:02;13.00;;;9.13;;
23684;SDS011;12020;51.384;6.908;2022-09-29T00:36:28;10.57;;;7.90;;
23684;SDS011;12020;51.384;6.908;2022-09-29T00:38:54;9.83;;;8.83;;
23684;SDS011;12020;51.384;6.908;2022-09-29T00:41:26;9.67;;;8.27;;
23684;SDS011;12020;51.384;6.908;2022-09-29T00:46:39;9.63;;;7.97;;
23684;SDS011;12020;51.384;6.908;2022-09-29T00:52:36;9.30;;;8.20;;
23684;SDS011;12020;51.384;6.908;2022-09-29T00:54:43;9.87;;;8.70;;
23684;SDS011;12020;51.384;6.908;2022-09-29T00:57:14;11.85;;;10.65;;
23684;SDS011;12020;51.384;6.908;2022-09-29T00:59:47;12.85;;;11.55;;
23684;SDS011;12020;51.384;6.908;2022-09-29T01:02:19;12.18;;;11.07;;
23684;SDS011;12020;51.384;6.908;2022-09-29T01:04:46;12.88;;;11.63;;
23684;SDS011;12020;51.384;6.908;2022-09-29T01:07:13;12.82;;;11.52;;
23684;SDS011;12020;51.384;6.908;2022-09-29T01:09:39;12.88;;;11.68;;
23684;SDS011;12020;51.384;6.908;2022-09-29T01:12:07;12.90;;;11.60;;
23684;SDS011;12020;51.384;6.908;2022-09-29T01:14:33;13.07;;;11.10;;
23684;SDS011;12020;51.384;6.908;2022-09-29T01:17:01;13.82;;;12.13;;
23684;SDS011;12020;51.384;6.908;2022-09-29T01:24:57;13.45;;;12.18;;
23684;SDS011;12020;51.384;6.908;2022-09-29T01:30:18;11.53;;;9.67;;
23684;SDS011;12020;51.384;6.908;2022-09-29T01:33:06;10.10;;;8.93;;
23684;SDS011;12020;51.384;6.908;2022-09-29T01:35:58;9.73;;;8.67;;
23684;SDS011;12020;51.384;6.908;2022-09-29T01:44:28;10.97;;;7.37;;
23684;SDS011;12020;51.384;6.908;2022-09-29T01:47:24;10.93;;;8.33;;
23684;SDS011;12020;51.384;6.908;2022-09-29T01:49:59;10.43;;;7.70;;
23684;SDS011;12020;51.384;6.908;2022-09-29T01:52:31;7.97;;;7.07;;
23684;SDS011;12020;51.384;6.908;2022-09-29T01:55:12;8.90;;;7.90;;
23684;SDS011;12020;51.384;6.908;2022-09-29T01:57:46;8.50;;;7.37;;
23684;SDS011;12020;51.384;6.908;2022-09-29T02:00:23;8.40;;;7.47;;
23684;SDS011;12020;51.384;6.908;2022-09-29T02:03:14;8.77;;;7.77;;
23684;SDS011;12020;51.384;6.908;2022-09-29T02:06:08;9.43;;;8.17;;
23684;SDS011;12020;51.384;6.908;2022-09-29T02:08:42;9.50;;;8.50;;
23684;SDS011;12020;51.384;6.908;2022-09-29T02:11:15;9.13;;;8.07;;
23684;SDS011;12020;51.384;6.908;2022-09-29T02:16:37;9.50;;;7.93;;
23684;SDS011;12020;51.384;6.908;2022-09-29T02:19:09;10.27;;;8.43;;
23684;SDS011;12020;51.384;6.908;2022-09-29T02:21:48;8.63;;;7.73;;
23684;SDS011;12020;51.384;6.908;2022-09-29T02:24:18;9.10;;;8.20;;
23684;SDS011;12020;51.384;6.908;2022-09-29T02:26:44;10.03;;;8.30;;
23684;SDS011;12020;51.384;6.908;2022-09-29T02:29:11;9.90;;;8.47;;
23684;SDS011;12020;51.384;6.908;2022-09-29T02:31:37;9.30;;;8.30;;
23684;SDS011;12020;51.384;6.908;2022-09-29T02:34:04;9.80;;;8.77;;
23684;SDS011;12020;51.384;6.908;2022-09-29T03:00:36;10.87;;;8.80;;
23684;SDS011;12020;51.384;6.908;2022-09-29T03:03:03;9.03;;;8.10;;
23684;SDS011;12020;51.384;6.908;2022-09-29T03:05:28;11.70;;;9.50;;
23684;SDS011;12020;51.384;6.908;2022-09-29T03:07:55;11.53;;;9.67;;
23684;SDS011;12020;51.384;6.908;2022-09-29T03:10:20;11.30;;;9.77;;
23684;SDS011;12020;51.384;6.908;2022-09-29T03:12:46;12.77;;;9.93;;
23684;SDS011;12020;51.384;6.908;2022-09-29T03:15:13;11.63;;;8.87;;
23684;SDS011;12020;51.384;6.908;2022-09-29T03:17:39;12.33;;;10.40;;
23684;SDS011;12020;51.384;6.908;2022-09-29T03:20:05;11.67;;;9.77;;
23684;SDS011;12020;51.384;6.908;2022-09-29T03:22:32;14.57;;;10.60;;
23684;SDS011;12020;51.384;6.908;2022-09-29T03:24:58;10.30;;;9.20;;
23684;SDS011;12020;51.384;6.908;2022-09-29T03:27:24;12.63;;;9.80;;
23684;SDS011;12020;51.384;6.908;2022-09-29T03:29:49;12.37;;;10.23;;
23684;SDS011;12020;51.384;6.908;2022-09-29T03:32:15;11.80;;;9.50;;
23684;SDS011;12020;51.384;6.908;2022-09-29T03:34:41;12.27;;;10.13;;
23684;SDS011;12020;51.384;6.908;2022-09-29T03:37:07;12.20;;;9.50;;
23684;SDS011;12020;51.384;6.908;2022-09-29T03:39:33;10.40;;;9.10;;
23684;SDS011;12020;51.384;6.908;2022-09-29T03:41:59;11.40;;;8.77;;
23684;SDS011;12020;51.384;6.908;2022-09-29T03:44:24;9.63;;;8.63;;
23684;SDS011;12020;51.384;6.908;2022-09-29T03:46:50;11.20;;;8.30;;
23684;SDS011;12020;51.384;6.908;2022-09-29T03:49:16;11.83;;;8.87;;
23684;SDS011;12020;51.384;6.908;2022-09-29T03:51:42;10.50;;;8.43;;
23684;SDS011;12020;51.384;6.908;2022-09-29T03:54:08;12.80;;;9.63;;
23684;SDS011;12020;51.384;6.908;2022-09-29T03:56:35;11.33;;;9.60;;
23684;SDS011;12020;51.384;6.908;2022-09-29T03:59:02;11.67;;;9.40;;
23684;SDS011;12020;51.384;6.908;2022-09-29T04:01:29;11.90;;;9.50;;
23684;SDS011;12020;51.384;6.908;2022-09-29T04:03:59;12.17;;;9.77;;
23684;SDS011;12020;51.384;6.908;2022-09-29T04:06:25;10.43;;;9.17;;
23684;SDS011;12020;51.384;6.908;2022-09-29T04:08:51;12.13;;;11.00;;
23684;SDS011;12020;51.384;6.908;2022-09-29T04:11:17;10.27;;;9.17;;
23684;SDS011;12020;51.384;6.908;2022-09-29T04:13:42;11.70;;;10.03;;
23684;SDS011;12020;51.384;6.908;2022-09-29T04:16:08;12.43;;;9.87;;
23684;SDS011;12020;51.384;6.908;2022-09-29T04:18:34;10.37;;;9.13;;
23684;SDS011;12020;51.384;6.908;2022-09-29T04:21:04;10.57;;;9.50;;
23684;SDS011;12020;51.384;6.908;2022-09-29T04:23:31;12.00;;;8.93;;
23684;SDS011;12020;51.384;6.908;2022-09-29T04:25:57;12.00;;;10.00;;
23684;SDS011;12020;51.384;6.908;2022-09-29T04:28:23;11.53;;;10.30;;
23684;SDS011;12020;51.384;6.908;2022-09-29T04:30:51;11.97;;;10.77;;
23684;SDS011;12020;51.384;6.908;2022-09-29T04:33:16;12.17;;;10.43;;
23684;SDS011;12020;51.384;6.908;2022-09-29T04:35:42;12.70;;;10.10;;
23684;SDS011;12020;51.384;6.908;2022-09-29T04:38:08;12.87;;;10.43;;
23684;SDS011;12020;51.384;6.908;2022-09-29T04:40:34;15.03;;;10.23;;
23684;SDS011;12020;51.384;6.908;2022-09-29T04:43:00;14.27;;;10.57;;
23684;SDS011;12020;51.384;6.908;2022-09-29T04:45:27;12.47;;;9.87;;
23684;SDS011;12020;51.384;6.908;2022-09-29T04:47:53;12.43;;;9.97;;
23684;SDS011;12020;51.384;6.908;2022-09-29T04:50:19;12.20;;;10.00;;
23684;SDS011;12020;51.384;6.908;2022-09-29T04:52:46;12.53;;;9.90;;
23684;SDS011;12020;51.384;6.908;2022-09-29T04:55:12;13.90;;;10.27;;
23684;SDS011;12020;51.384;6.908;2022-09-29T04:57:38;11.00;;;9.80;;
23684;SDS011;12020;51.384;6.908;2022-09-29T05:00:06;13.87;;;11.37;;
23684;SDS011;12020;51.384;6.908;2022-09-29T05:02:33;13.87;;;10.13;;
23684;SDS011;12020;51.384;6.908;2022-09-29T05:04:59;10.93;;;9.80;;
23684;SDS011;12020;51.384;6.908;2022-09-29T05:07:25;13.57;;;11.20;;
23684;SDS011;12020;51.384;6.908;2022-09-29T05:09:50;12.00;;;10.50;;
23684;SDS011;12020;51.384;6.908;2022-09-29T05:12:16;11.37;;;10.17;;
23684;SDS011;12020;51.384;6.908;2022-09-29T05:14:42;14.53;;;10.10;;
23684;SDS011;12020;51.384;6.908;2022-09-29T05:17:08;11.03;;;8.93;;
23684;SDS011;12020;51.384;6.908;2022-09-29T05:19:33;12.73;;;9.70;;
23684;SDS011;12020;51.384;6.908;2022-09-29T05:21:59;11.77;;;10.13;;
23684;SDS011;12020;51.384;6.908;2022-09-29T05:24:26;13.03;;;10.63;;
23684;SDS011;12020;51.384;6.908;2022-09-29T05:26:51;12.30;;;9.43;;
23684;SDS011;12020;51.384;6.908;2022-09-29T05:29:17;10.63;;;9.10;;
23684;SDS011;12020;51.384;6.908;2022-09-29T05:31:43;12.03;;;9.87;;
23684;SDS011;12020;51.384;6.908;2022-09-29T05:34:09;11.03;;;9.73;;
23684;SDS011;12020;51.384;6.908;2022-09-29T05:36:35;11.00;;;9.40;;
23684;SDS011;12020;51.384;6.908;2022-09-29T05:39:00;12.23;;;10.07;;
23684;SDS011;12020;51.384;6.908;2022-09-29T05:41:26;11.57;;;10.27;;
23684;SDS011;12020;51.384;6.908;2022-09-29T05:43:53;13.00;;;10.20;;
23684;SDS011;12020;51.384;6.908;2022-09-29T05:46:21;11.53;;;9.83;;
23684;SDS011;12020;51.384;6.908;2022-09-29T05:48:47;11.03;;;9.73;;
23684;SDS011;12020;51.384;6.908;2022-09-29T05:51:16;12.47;;;9.43;;
23684;SDS011;12020;51.384;6.908;2022-09-29T05:53:44;11.37;;;9.73;;
23684;SDS011;12020;51.384;6.908;2022-09-29T05:56:11;11.73;;;10.57;;
23684;SDS011;12020;51.384;6.908;2022-09-29T05:58:44;11.87;;;9.63;;
23684;SDS011;12020;51.384;6.908;2022-09-29T06:01:10;10.67;;;9.57;;
23684;SDS011;12020;51.384;6.908;2022-09-29T06:03:38;13.20;;;10.23;;
23684;SDS011;12020;51.384;6.908;2022-09-29T06:06:05;12.10;;;10.50;;
23684;SDS011;12020;51.384;6.908;2022-09-29T06:08:38;15.63;;;11.00;;
23684;SDS011;12020;51.384;6.908;2022-09-29T06:13:31;11.00;;;9.83;;
23684;SDS011;12020;51.384;6.908;2022-09-29T06:15:59;13.60;;;11.03;;
23684;SDS011;12020;51.384;6.908;2022-09-29T06:18:25;12.23;;;10.33;;
23684;SDS011;12020;51.384;6.908;2022-09-29T06:20:51;13.10;;;9.83;;
23684;SDS011;12020;51.384;6.908;2022-09-29T06:23:16;12.43;;;10.07;;
23684;SDS011;12020;51.384;6.908;2022-09-29T06:25:42;13.00;;;10.40;;
23684;SDS011;12020;51.384;6.908;2022-09-29T06:28:07;12.50;;;10.37;;
23684;SDS011;12020;51.384;6.908;2022-09-29T06:30:33;11.93;;;9.97;;
23684;SDS011;12020;51.384;6.908;2022-09-29T06:32:59;11.53;;;9.33;;
23684;SDS011;12020;51.384;6.908;2022-09-29T06:35:24;12.07;;;9.73;;
23684;SDS011;12020;51.384;6.908;2022-09-29T06:38:17;12.30;;;10.33;;
23684;SDS011;12020;51.384;6.908;2022-09-29T06:40:43;13.37;;;9.90;;
23684;SDS011;12020;51.384;6.908;2022-09-29T06:43:08;12.43;;;10.63;;
23684;SDS011;12020;51.384;6.908;2022-09-29T06:45:36;10.03;;;9.03;;
23684;SDS011;12020;51.384;6.908;2022-09-29T06:48:02;13.87;;;10.40;;
23684;SDS011;12020;51.384;6.908;2022-09-29T06:50:27;12.63;;;10.40;;
23684;SDS011;12020;51.384;6.908;2022-09-29T06:52:53;11.17;;;9.57;;
23684;SDS011;12020;51.384;6.908;2022-09-29T06:55:19;12.23;;;10.20;;
23684;SDS011;12020;51.384;6.908;2022-09-29T06:57:45;10.47;;;9.10;;
23684;SDS011;12020;51.384;6.908;2022-09-29T07:00:10;10.23;;;9.23;;
23684;SDS011;12020;51.384;6.908;2022-09-29T07:02:36;11.17;;;9.47;;
23684;SDS011;12020;51.384;6.908;2022-09-29T07:05:02;10.90;;;9.43;;
23684;SDS011;12020;51.384;6.908;2022-09-29T07:07:29;11.03;;;9.67;;
23684;SDS011;12020;51.384;6.908;2022-09-29T07:09:54;12.23;;;9.87;;
23684;SDS011;12020;51.384;6.908;2022-09-29T07:12:20;11.23;;;9.83;;
23684;SDS011;12020;51.384;6.908;2022-09-29T07:14:46;10.67;;;9.43;;
23684;SDS011;12020;51.384;6.908;2022-09-29T07:17:12;10.93;;;8.93;;
23684;SDS011;12020;51.384;6.908;2022-09-29T07:19:39;11.07;;;9.90;;
23684;SDS011;12020;51.384;6.908;2022-09-29T07:22:05;10.87;;;9.40;;
23684;SDS011;12020;51.384;6.908;2022-09-29T07:24:33;9.93;;;8.93;;
23684;SDS011;12020;51.384;6.908;2022-09-29T07:26:59;11.73;;;9.60;;
23684;SDS011;12020;51.384;6.908;2022-09-29T07:29:25;11.17;;;10.03;;
23684;SDS011;12020;51.384;6.908;2022-09-29T07:31:51;11.17;;;9.90;;
23684;SDS011;12020;51.384;6.908;2022-09-29T07:34:19;10.50;;;9.33;;
23684;SDS011;12020;51.384;6.908;2022-09-29T07:36:45;10.90;;;9.77;;
23684;SDS011;12020;51.384;6.908;2022-09-29T07:39:11;11.97;;;10.53;;
23684;SDS011;12020;51.384;6.908;2022-09-29T07:41:36;11.10;;;9.90;;
23684;SDS011;12020;51.384;6.908;2022-09-29T07:44:02;13.20;;;9.77;;
23684;SDS011;12020;51.384;6.908;2022-09-29T07:46:28;13.10;;;10.17;;
23684;SDS011;12020;51.384;6.908;2022-09-29T07:48:54;11.67;;;9.23;;
23684;SDS011;12020;51.384;6.908;2022-09-29T07:51:20;10.80;;;9.70;;
23684;SDS011;12020;51.384;6.908;2022-09-29T07:53:46;10.63;;;9.50;;
23684;SDS011;12020;51.384;6.908;2022-09-29T07:56:16;13.53;;;9.47;;
23684;SDS011;12020;51.384;6.908;2022-09-29T07:58:44;12.37;;;10.03;;
23684;SDS011;12020;51.384;6.908;2022-09-29T08:01:11;11.97;;;9.73;;
23684;SDS011;12020;51.384;6.908;2022-09-29T08:03:39;11.07;;;9.73;;
23684;SDS011;12020;51.384;6.908;2022-09-29T08:06:06;10.37;;;9.27;;
23684;SDS011;12020;51.384;6.908;2022-09-29T08:08:39;11.40;;;8.97;;
23684;SDS011;12020;51.384;6.908;2022-09-29T08:11:07;11.13;;;9.27;;
23684;SDS011;12020;51.384;6.908;2022-09-29T08:13:37;10.47;;;9.37;;
23684;SDS011;12020;51.384;6.908;2022-09-29T08:16:05;10.00;;;9.00;;
23684;SDS011;12020;51.384;6.908;2022-09-29T21:51:14;5.97;;;4.23;;
23684;SDS011;12020;51.384;6.908;2022-09-29T21:53:41;8.30;;;4.03;;
23684;SDS011;12020;51.384;6.908;2022-09-29T21:56:08;5.50;;;3.93;;
23684;SDS011;12020;51.384;6.908;2022-09-29T21:58:37;7.33;;;4.73;;
23684;SDS011;12020;51.384;6.908;2022-09-29T22:01:04;3.77;;;3.37;;
23684;SDS011;12020;51.384;6.908;2022-09-29T22:03:31;5.93;;;4.60;;
23684;SDS011;12020;51.384;6.908;2022-09-29T22:05:59;4.27;;;3.87;;
23684;SDS011;12020;51.384;6.908;2022-09-29T22:08:26;6.70;;;4.20;;
23684;SDS011;12020;51.384;6.908;2022-09-29T22:10:54;5.00;;;4.50;;
23684;SDS011;12020;51.384;6.908;2022-09-29T22:13:21;4.50;;;4.00;;
23684;SDS011;12020;51.384;6.908;2022-09-29T22:15:53;4.63;;;4.17;;
23684;SDS011;12020;51.384;6.908;2022-09-29T22:18:27;4.70;;;4.20;;
23684;SDS011;12020;51.384;6.908;2022-09-29T22:20:55;7.00;;;4.47;;
23684;SDS011;12020;51.384;6.908;2022-09-29T22:23:22;5.23;;;4.37;;
23684;SDS011;12020;51.384;6.908;2022-09-29T22:25:47;4.50;;;3.63;;
23684;SDS011;12020;51.384;6.908;2022-09-29T22:28:13;6.87;;;4.40;;
23684;SDS011;12020;51.384;6.908;2022-09-29T22:30:38;5.63;;;4.47;;
23684;SDS011;12020;51.384;6.908;2022-09-29T22:33:04;5.43;;;4.50;;
23684;SDS011;12020;51.384;6.908;2022-09-29T22:35:33;6.90;;;4.53;;
23684;SDS011;12020;51.384;6.908;2022-09-29T22:38:00;7.17;;;4.70;;
23684;SDS011;12020;51.384;6.908;2022-09-29T22:40:27;6.60;;;4.10;;
23684;SDS011;12020;51.384;6.908;2022-09-29T22:42:53;4.93;;;4.00;;
23684;SDS011;12020;51.384;6.908;2022-09-29T22:45:19;5.03;;;4.30;;
23684;SDS011;12020;51.384;6.908;2022-09-29T22:47:46;5.13;;;3.93;;
23684;SDS011;12020;51.384;6.908;2022-09-29T22:50:11;5.30;;;4.23;;
23684;SDS011;12020;51.384;6.908;2022-09-29T22:52:37;6.00;;;4.53;;
23684;SDS011;12020;51.384;6.908;2022-09-29T22:55:03;8.17;;;4.27;;
23684;SDS011;12020;51.384;6.908;2022-09-29T22:57:29;5.30;;;4.33;;
23684;SDS011;12020;51.384;6.908;2022-09-29T22:59:55;4.10;;;3.67;;
23684;SDS011;12020;51.384;6.908;2022-09-29T23:02:21;5.50;;;4.47;;
23684;SDS011;12020;51.384;6.908;2022-09-29T23:04:47;4.87;;;4.30;;
23684;SDS011;12020;51.384;6.908;2022-09-29T23:07:13;6.93;;;4.50;;
23684;SDS011;12020;51.384;6.908;2022-09-29T23:09:39;6.10;;;3.67;;
23684;SDS011;12020;51.384;6.908;2022-09-29T23:12:04;5.10;;;3.90;;
23684;SDS011;12020;51.384;6.908;2022-09-29T23:14:32;4.80;;;3.67;;
23684;SDS011;12020;51.384;6.908;2022-09-29T23:16:57;5.73;;;3.77;;
23684;SDS011;12020;51.384;6.908;2022-09-29T23:19:23;5.17;;;3.77;;
23684;SDS011;12020;51.384;6.908;2022-09-29T23:21:48;5.93;;;3.77;;
23684;SDS011;12020;51.384;6.908;2022-09-29T23:24:14;7.23;;;3.77;;
23684;SDS011;12020;51.384;6.908;2022-09-29T23:26:40;5.20;;;4.30;;
23684;SDS011;12020;51.384;6.908;2022-09-29T23:29:06;4.70;;;3.83;;
23684;SDS011;12020;51.384;6.908;2022-09-29T23:31:32;4.40;;;3.73;;
23684;SDS011;12020;51.384;6.908;2022-09-29T23:33:58;6.73;;;4.23;;
23684;SDS011;12020;51.384;6.908;2022-09-29T23:36:26;4.73;;;4.07;;
23684;SDS011;12020;51.384;6.908;2022-09-29T23:38:53;6.00;;;3.97;;
23684;SDS011;12020;51.384;6.908;2022-09-29T23:41:33;5.83;;;3.93;;
23684;SDS011;12020;51.384;6.908;2022-09-29T23:44:02;7.25;;;4.60;;
23684;SDS011;12020;51.384;6.908;2022-09-29T23:46:29;4.65;;;4.25;;
23684;SDS011;12020;51.384;6.908;2022-09-29T23:48:57;6.22;;;4.90;;
23684;SDS011;12020;51.384;6.908;2022-09-29T23:51:24;5.85;;;4.95;;
23684;SDS011;12020;51.384;6.908;2022-09-29T23:53:50;5.20;;;4.40;;
23684;SDS011;12020;51.384;6.908;2022-09-29T23:56:15;6.03;;;4.82;;
23684;SDS011;12020;51.384;6.908;2022-09-29T23:58:41;4.80;;;4.30;;
